Time;durP1;ratioP1;P1;durP2;ratioP2;P2;SDS_P1;SDS_P2;PMS_P1;PMS_P2;Temp;Humidity;BMP_temperature;BMP_pressure;BME280_temperature;BME280_humidity;BME280_pressure;Samples;Min_cycle;Max_cycle;Signal;HPM_P1;HPM_P2
2021/10/10 00:00:27;;;;;;;11.63;6.57;;;;;;;10.11;62.19;100884.00;1087869;54;20046;-77
2021/10/10 00:01:29;;;;;;;9.63;6.25;;;;;;;10.08;62.25;100879.75;1088022;54;20042;-76
2021/10/10 00:02:33;;;;;;;10.13;6.32;;;;;;;10.09;62.57;100885.94;1089639;39;20594;-76
2021/10/10 00:03:37;;;;;;;10.50;6.38;;;;;;;10.10;62.35;100877.81;1091567;39;20567;-77
2021/10/10 00:04:39;;;;;;;10.20;7.00;;;;;;;10.10;62.49;100885.84;1087749;54;20031;-77
2021/10/10 00:05:43;;;;;;;9.88;6.88;;;;;;;10.04;62.72;100877.44;1087897;54;20035;-76
2021/10/10 00:06:45;;;;;;;9.00;6.88;;;;;;;10.04;62.68;100878.28;1087876;54;20030;-75
2021/10/10 00:07:49;;;;;;;11.35;7.03;;;;;;;10.01;62.75;100883.03;1088703;46;20026;-75
2021/10/10 00:08:53;;;;;;;9.48;6.45;;;;;;;10.00;62.79;100882.19;1087860;54;20041;-75
2021/10/10 00:09:55;;;;;;;11.20;6.88;;;;;;;9.92;63.10;100881.94;1087444;54;20042;-76
2021/10/10 00:10:59;;;;;;;10.85;6.65;;;;;;;9.90;63.32;100886.53;1087449;54;20022;-77
2021/10/10 00:12:01;;;;;;;10.88;6.88;;;;;;;9.80;63.52;100876.59;1088763;39;20610;-78
2021/10/10 00:13:05;;;;;;;11.32;7.40;;;;;;;9.75;63.56;100884.09;1087753;54;20030;-77
2021/10/10 00:14:09;;;;;;;11.73;7.97;;;;;;;9.68;63.71;100881.03;1087820;54;20022;-78
2021/10/10 00:15:15;;;;;;;9.73;7.03;;;;;;;9.67;63.58;100886.50;1087661;54;20035;-77
2021/10/10 00:16:19;;;;;;;11.02;6.75;;;;;;;9.63;63.76;100882.38;1087793;39;20222;-77
2021/10/10 00:17:21;;;;;;;9.48;6.60;;;;;;;9.64;63.88;100887.59;1087910;54;20021;-76
2021/10/10 00:18:26;;;;;;;11.00;6.88;;;;;;;9.63;64.01;100885.06;1089453;46;20474;-77
2021/10/10 00:19:27;;;;;;;10.35;6.45;;;;;;;9.61;63.93;100881.66;1088010;54;20031;-77
2021/10/10 00:20:32;;;;;;;10.13;6.50;;;;;;;9.61;63.81;100890.50;1087943;54;20014;-77
2021/10/10 00:21:33;;;;;;;9.57;6.35;;;;;;;9.65;63.97;100883.97;1087983;54;20018;-77
2021/10/10 00:22:37;;;;;;;12.00;7.03;;;;;;;9.66;64.02;100884.78;1087948;54;20034;-75
2021/10/10 00:23:39;;;;;;;9.63;6.20;;;;;;;9.68;63.55;100882.88;1088126;54;20018;-77
2021/10/10 00:24:43;;;;;;;9.55;6.15;;;;;;;9.64;64.03;100878.72;1088203;54;20034;-77
2021/10/10 00:25:44;;;;;;;10.65;6.57;;;;;;;9.66;63.83;100884.78;1088045;54;20034;-76
2021/10/10 00:26:48;;;;;;;9.95;6.20;;;;;;;9.64;63.87;100884.06;1088116;54;20037;-77
2021/10/10 00:27:50;;;;;;;9.63;5.88;;;;;;;9.65;63.94;100877.75;1089958;46;20030;-77
2021/10/10 00:28:54;;;;;;;9.45;5.63;;;;;;;9.67;63.73;100883.81;1087973;54;20015;-76
2021/10/10 00:30:01;;;;;;;9.25;6.18;;;;;;;9.63;64.18;100882.38;1088016;54;20034;-77
2021/10/10 00:31:05;;;;;;;11.52;7.40;;;;;;;9.58;64.05;100871.19;1087981;54;20035;-75
2021/10/10 00:32:06;;;;;;;11.00;6.38;;;;;;;9.59;64.28;100870.22;1088029;54;20034;-77
2021/10/10 00:33:10;;;;;;;10.90;6.07;;;;;;;9.57;63.98;100874.81;1087973;54;20036;-76
2021/10/10 00:34:12;;;;;;;10.68;6.57;;;;;;;9.54;64.10;100880.41;1087521;54;20042;-79
2021/10/10 00:35:17;;;;;;;9.13;6.15;;;;;;;9.50;64.13;100872.63;1087728;54;20046;-76
2021/10/10 00:36:19;;;;;;;9.88;6.93;;;;;;;9.43;64.56;100874.09;1087832;54;20058;-76
2021/10/10 00:37:23;;;;;;;12.13;7.88;;;;;;;9.32;64.75;100869.53;1087768;54;20034;-76
2021/10/10 00:38:24;;;;;;;10.48;7.43;;;;;;;9.26;65.14;100879.84;1087684;54;20030;-76
2021/10/10 00:39:28;;;;;;;14.65;8.07;;;;;;;9.16;65.53;100871.69;1087626;54;20031;-78
2021/10/10 00:40:33;;;;;;;11.45;7.20;;;;;;;9.16;65.54;100879.69;1087458;54;20041;-76
2021/10/10 00:41:36;;;;;;;13.82;7.60;;;;;;;9.15;65.33;100870.84;1088130;39;20594;-77
2021/10/10 00:42:40;;;;;;;10.65;6.80;;;;;;;9.14;65.39;100874.47;1087676;54;20067;-76
2021/10/10 00:43:42;;;;;;;11.63;7.68;;;;;;;9.19;65.21;100876.78;1087693;54;20034;-76
2021/10/10 00:44:46;;;;;;;9.98;7.00;;;;;;;9.18;65.43;100867.91;1089538;39;20321;-76
2021/10/10 00:45:52;;;;;;;11.43;6.32;;;;;;;9.21;65.55;100873.03;1087603;47;20050;-77
2021/10/10 00:46:56;;;;;;;9.43;6.90;;;;;;;9.16;65.31;100867.19;1087708;54;20061;-76
2021/10/10 00:47:57;;;;;;;10.73;6.68;;;;;;;9.21;65.19;100870.38;1087584;54;20053;-76
2021/10/10 00:49:01;;;;;;;11.13;6.25;;;;;;;9.26;65.19;100874.53;1087710;54;20030;-76
2021/10/10 00:50:07;;;;;;;9.93;6.43;;;;;;;9.26;65.14;100871.84;1087669;54;20043;-76
2021/10/10 00:51:09;;;;;;;10.25;6.38;;;;;;;9.27;65.24;100873.53;1087712;54;20061;-77
2021/10/10 00:52:16;;;;;;;9.55;6.85;;;;;;;9.24;65.33;100868.44;1087457;54;20031;-76
2021/10/10 00:53:22;;;;;;;9.68;6.35;;;;;;;9.24;65.51;100873.78;1087821;54;20061;-76
2021/10/10 00:54:24;;;;;;;12.02;6.50;;;;;;;9.26;65.29;100871.84;1087672;54;20045;-76
2021/10/10 00:55:29;;;;;;;13.48;6.78;;;;;;;9.24;65.40;100873.78;1087643;54;20049;-76
2021/10/10 00:56:31;;;;;;;9.07;5.93;;;;;;;9.24;65.33;100874.63;1087670;54;20793;-76
2021/10/10 00:57:38;;;;;;;9.52;6.00;;;;;;;9.22;65.37;100871.19;1087494;54;20038;-82
2021/10/10 00:58:41;;;;;;;11.43;6.53;;;;;;;9.20;65.61;100867.81;1087604;54;20726;-75
2021/10/10 00:59:47;;;;;;;10.90;6.72;;;;;;;9.23;65.51;100872.91;1087664;54;20819;-76
2021/10/10 01:00:56;;;;;;;9.40;6.22;;;;;;;9.23;65.33;100861.41;1088444;39;22056;-76
2021/10/10 01:01:58;;;;;;;12.88;6.70;;;;;;;9.21;65.67;100870.38;1087577;54;20034;-75
2021/10/10 01:03:02;;;;;;;11.90;6.28;;;;;;;9.25;65.38;100876.31;1087657;54;20042;-77
2021/10/10 01:04:04;;;;;;;8.35;6.03;;;;;;;9.26;65.09;100877.19;1087319;54;20059;-76
2021/10/10 01:05:09;;;;;;;8.48;6.05;;;;;;;9.28;65.08;100865.44;1087588;54;20041;-75
2021/10/10 01:06:13;;;;;;;9.60;5.50;;;;;;;9.28;65.04;100870.75;1087508;54;20030;-77
2021/10/10 01:07:17;;;;;;;8.80;5.60;;;;;;;9.32;65.01;100871.38;1087998;39;20619;-76
2021/10/10 01:08:19;;;;;;;10.80;6.13;;;;;;;9.26;64.88;100872.69;1087641;54;20039;-76
2021/10/10 01:09:24;;;;;;;8.38;5.75;;;;;;;9.28;64.99;100878.75;1087430;54;20027;-75
2021/10/10 01:10:26;;;;;;;12.13;6.63;;;;;;;9.30;64.69;100867.97;1087405;54;20062;-75
2021/10/10 01:11:31;;;;;;;9.55;5.57;;;;;;;9.28;64.73;100876.09;1087636;54;20066;-76
2021/10/10 01:12:33;;;;;;;9.55;6.00;;;;;;;9.27;64.91;100881.53;1087568;54;20042;-75
2021/10/10 01:13:38;;;;;;;13.77;7.30;;;;;;;9.25;64.75;100881.66;1087470;54;20034;-76
2021/10/10 01:14:39;;;;;;;11.13;6.38;;;;;;;9.18;65.05;100881.25;1087595;54;20053;-76
2021/10/10 01:15:44;;;;;;;9.75;6.38;;;;;;;9.20;65.32;100876.66;1088673;39;20725;-76
2021/10/10 01:16:50;;;;;;;11.90;6.30;;;;;;;9.21;65.15;100869.50;1087659;54;20041;-76
2021/10/10 01:17:52;;;;;;;11.75;6.15;;;;;;;9.15;65.18;100876.19;1087691;54;20071;-76
2021/10/10 01:18:58;;;;;;;10.90;6.55;;;;;;;9.15;65.31;100880.63;1087605;54;20057;-77
2021/10/10 01:20:01;;;;;;;10.40;7.18;;;;;;;9.07;65.73;100878.53;1087578;54;20034;-76
2021/10/10 01:21:08;;;;;;;13.05;7.40;;;;;;;9.04;65.75;100878.78;1087469;54;20037;-76
2021/10/10 01:22:09;;;;;;;9.82;7.18;;;;;;;8.97;66.25;100885.56;1087526;54;20031;-76
2021/10/10 01:23:14;;;;;;;10.32;7.25;;;;;;;8.94;66.20;100883.09;1087964;54;20042;-77
2021/10/10 01:24:15;;;;;;;12.50;7.57;;;;;;;8.89;66.35;100884.28;1087998;54;20034;-76
2021/10/10 01:25:20;;;;;;;11.10;7.57;;;;;;;8.80;66.18;100876.97;1087759;54;20115;-76
2021/10/10 01:26:22;;;;;;;11.02;7.93;;;;;;;8.75;66.48;100884.47;1088483;46;20629;-77
2021/10/10 01:27:27;;;;;;;10.57;6.43;;;;;;;8.75;66.40;100884.47;1087651;54;20046;-76
2021/10/10 01:28:28;;;;;;;10.32;6.80;;;;;;;8.70;66.53;100886.59;1088129;46;20038;-76
2021/10/10 01:29:33;;;;;;;13.02;7.30;;;;;;;8.60;66.67;100885.59;1087909;54;20038;-77
2021/10/10 01:30:35;;;;;;;10.05;6.88;;;;;;;8.56;66.78;100885.81;1087802;54;20037;-76
2021/10/10 01:31:39;;;;;;;10.60;7.68;;;;;;;8.55;66.66;100888.56;1087957;54;20910;-78
2021/10/10 01:32:40;;;;;;;11.98;7.20;;;;;;;8.52;66.53;100883.47;1087944;54;20042;-76
2021/10/10 01:33:47;;;;;;;10.90;6.80;;;;;;;8.47;66.86;100886.47;1087853;54;20041;-76
2021/10/10 01:34:49;;;;;;;11.73;7.75;;;;;;;8.48;66.81;100888.19;1088149;54;20031;-77
2021/10/10 01:35:53;;;;;;;13.60;7.53;;;;;;;8.44;67.12;100891.97;1088136;54;20042;-77
2021/10/10 01:36:57;;;;;;;13.57;7.28;;;;;;;8.39;67.06;100889.66;1088190;54;20725;-76
2021/10/10 01:38:01;;;;;;;9.68;6.75;;;;;;;8.39;66.99;100884.31;1088139;54;20046;-76
2021/10/10 01:39:03;;;;;;;14.50;8.20;;;;;;;8.33;67.02;100887.44;1087980;54;20045;-77
2021/10/10 01:40:09;;;;;;;10.73;7.07;;;;;;;8.31;67.31;100885.84;1087931;54;20078;-76
2021/10/10 01:41:11;;;;;;;11.10;6.90;;;;;;;8.23;67.53;100887.22;1088045;54;20729;-77
2021/10/10 01:42:15;;;;;;;12.60;8.32;;;;;;;8.17;67.91;100882.34;1088116;54;20030;-77
2021/10/10 01:43:17;;;;;;;12.38;7.45;;;;;;;8.15;67.49;100883.41;1088098;54;20019;-77
2021/10/10 01:44:21;;;;;;;13.88;7.57;;;;;;;8.07;67.95;100883.94;1088128;54;20090;-76
2021/10/10 01:45:24;;;;;;;10.30;7.32;;;;;;;8.08;67.74;100888.31;1087840;54;20418;-77
2021/10/10 01:46:28;;;;;;;11.18;7.82;;;;;;;7.93;68.25;100875.13;1087937;54;20053;-77
2021/10/10 01:47:30;;;;;;;11.95;7.72;;;;;;;7.92;68.31;100876.09;1087998;54;20046;-77
2021/10/10 01:48:35;;;;;;;13.55;8.18;;;;;;;7.89;68.35;100884.28;1087955;54;20041;-76
2021/10/10 01:49:38;;;;;;;10.77;7.50;;;;;;;7.88;68.22;100874.59;1087989;54;20041;-77
2021/10/10 01:50:42;;;;;;;11.43;7.13;;;;;;;7.87;68.46;100883.53;1087812;54;20078;-77
2021/10/10 01:51:43;;;;;;;11.18;6.80;;;;;;;7.85;68.32;100879.28;1087311;54;20038;-77
2021/10/10 01:52:50;;;;;;;9.77;7.50;;;;;;;7.83;68.40;100875.84;1088003;54;20443;-76
2021/10/10 01:53:52;;;;;;;12.60;6.95;;;;;;;7.83;68.46;100876.72;1088044;54;20049;-76
2021/10/10 01:54:56;;;;;;;12.93;7.10;;;;;;;7.88;68.30;100868.41;1087942;54;20031;-76
2021/10/10 01:55:57;;;;;;;10.65;6.68;;;;;;;7.88;68.22;100871.91;1087928;54;20745;-76
2021/10/10 01:57:02;;;;;;;11.30;6.88;;;;;;;7.89;68.05;100876.28;1087737;54;20038;-78
2021/10/10 01:58:04;;;;;;;10.88;6.63;;;;;;;7.91;68.04;100874.38;1087871;54;20038;-77
2021/10/10 01:59:08;;;;;;;12.57;6.95;;;;;;;7.93;67.75;100871.59;1087900;54;20031;-77
2021/10/10 02:00:11;;;;;;;10.80;6.82;;;;;;;7.95;67.76;100875.84;1087982;54;20021;-77
2021/10/10 02:01:15;;;;;;;13.98;7.88;;;;;;;7.90;67.85;100862.03;1087746;54;20031;-77
2021/10/10 02:02:16;;;;;;;9.57;6.13;;;;;;;7.88;68.11;100871.09;1087937;54;20038;-76
2021/10/10 02:03:20;;;;;;;10.55;6.28;;;;;;;7.92;68.06;100873.44;1087666;54;20042;-76
2021/10/10 02:04:22;;;;;;;12.40;7.25;;;;;;;7.92;67.92;100868.09;1087890;54;21416;-77
2021/10/10 02:05:26;;;;;;;11.60;7.63;;;;;;;7.88;68.07;100871.91;1087826;54;20045;-77
2021/10/10 02:06:28;;;;;;;13.15;7.53;;;;;;;7.79;68.00;100876.06;1087833;54;20041;-77
2021/10/10 02:07:32;;;;;;;10.18;7.35;;;;;;;7.75;67.96;100868.41;1087907;54;20030;-76
2021/10/10 02:08:36;;;;;;;18.48;9.25;;;;;;;7.69;68.32;100868.84;1087823;54;20034;-76
2021/10/10 02:09:42;;;;;;;11.55;8.05;;;;;;;7.65;68.49;100868.19;1087795;54;20042;-77
2021/10/10 02:10:44;;;;;;;13.15;6.93;;;;;;;7.71;68.26;100866.91;1087920;54;20654;-76
2021/10/10 02:11:48;;;;;;;11.57;6.95;;;;;;;7.68;68.41;100865.34;1087899;54;20038;-76
2021/10/10 02:12:50;;;;;;;14.90;7.53;;;;;;;7.68;68.36;100861.81;1087889;54;20046;-77
2021/10/10 02:13:54;;;;;;;11.55;7.90;;;;;;;7.67;68.47;100865.41;1087928;54;20036;-78
2021/10/10 02:14:55;;;;;;;12.95;8.38;;;;;;;7.61;68.35;100864.91;1087658;54;20035;-76
2021/10/10 02:16:00;;;;;;;12.82;7.20;;;;;;;7.65;68.48;100863.72;1087948;54;20030;-77
2021/10/10 02:17:02;;;;;;;12.25;7.60;;;;;;;7.59;68.46;100866.81;1088017;46;20030;-77
2021/10/10 02:18:06;;;;;;;12.57;7.65;;;;;;;7.54;68.69;100863.63;1087870;54;20034;-77
2021/10/10 02:19:08;;;;;;;14.98;8.75;;;;;;;7.53;68.46;100861.91;1087891;54;20034;-76
2021/10/10 02:20:14;;;;;;;11.50;7.82;;;;;;;7.56;68.45;100860.84;1087743;54;20050;-77
2021/10/10 02:21:16;;;;;;;11.43;6.95;;;;;;;7.60;68.29;100871.16;1087863;54;20061;-77
2021/10/10 02:22:20;;;;;;;12.88;7.07;;;;;;;7.58;68.23;100867.75;1087889;54;20042;-76
2021/10/10 02:23:21;;;;;;;12.15;7.32;;;;;;;7.59;68.34;100858.81;1087889;54;20022;-76
2021/10/10 02:24:28;;;;;;;9.75;6.22;;;;;;;7.65;68.34;100871.69;1087879;54;20041;-77
2021/10/10 02:25:31;;;;;;;11.38;6.97;;;;;;;7.68;68.34;100861.81;1087847;54;20820;-77
2021/10/10 02:26:37;;;;;;;10.65;6.07;;;;;;;7.73;68.19;100871.19;1087611;54;20042;-77
2021/10/10 02:27:39;;;;;;;11.98;7.40;;;;;;;7.73;68.03;100865.00;1087794;54;20046;-76
2021/10/10 02:28:43;;;;;;;10.55;6.32;;;;;;;7.73;67.75;100860.53;1087961;54;20034;-75
2021/10/10 02:29:44;;;;;;;10.27;6.75;;;;;;;7.75;68.08;100865.72;1087882;54;20031;-76
2021/10/10 02:30:49;;;;;;;9.98;5.97;;;;;;;7.74;68.05;100872.88;1087863;54;20074;-76
2021/10/10 02:31:50;;;;;;;9.88;6.10;;;;;;;7.74;68.00;100872.88;1087815;54;20061;-77
2021/10/10 02:32:55;;;;;;;10.10;6.18;;;;;;;7.79;67.82;100864.56;1087602;54;20030;-77
2021/10/10 02:33:57;;;;;;;11.05;6.78;;;;;;;7.74;67.75;100870.22;1088066;39;20768;-77
2021/10/10 02:35:01;;;;;;;11.63;7.47;;;;;;;7.75;68.04;100868.41;1088094;39;20808;-77
2021/10/10 02:36:06;;;;;;;10.20;6.30;;;;;;;7.76;68.15;100865.66;1087230;54;20034;-76
2021/10/10 02:37:08;;;;;;;10.60;6.05;;;;;;;7.72;68.02;100863.31;1087321;54;20035;-76
2021/10/10 02:38:13;;;;;;;11.30;7.05;;;;;;;7.74;67.87;100872.88;1087521;54;20033;-75
2021/10/10 02:39:14;;;;;;;20.63;7.55;;;;;;;7.67;68.13;100873.41;1087693;54;20045;-77
2021/10/10 02:40:21;;;;;;;11.50;7.25;;;;;;;7.69;68.16;100871.50;1087620;54;20015;-76
2021/10/10 02:41:23;;;;;;;13.18;7.28;;;;;;;7.72;67.94;100873.94;1087601;54;20058;-77
2021/10/10 02:42:27;;;;;;;10.48;6.82;;;;;;;7.74;68.15;100872.88;1087518;54;20045;-76
2021/10/10 02:43:31;;;;;;;10.35;6.30;;;;;;;7.76;67.97;100872.75;1087426;54;20030;-76
2021/10/10 02:44:33;;;;;;;9.27;6.10;;;;;;;7.80;67.78;100867.13;1087516;54;20041;-76
2021/10/10 02:45:37;;;;;;;9.18;5.93;;;;;;;7.84;67.75;100873.06;1087655;54;20775;-76
2021/10/10 02:46:39;;;;;;;10.80;6.35;;;;;;;7.85;67.57;100869.47;1087523;54;20034;-76
2021/10/10 02:47:43;;;;;;;8.70;5.68;;;;;;;7.85;67.46;100872.13;1087561;54;20037;-77
2021/10/10 02:48:45;;;;;;;9.98;6.28;;;;;;;7.83;67.85;100871.41;1087669;54;20045;-77
2021/10/10 02:49:49;;;;;;;10.23;6.32;;;;;;;7.82;67.58;100869.69;1087420;54;20042;-76
2021/10/10 02:50:50;;;;;;;9.85;6.40;;;;;;;7.82;67.71;100864.38;1087512;54;20038;-76
2021/10/10 02:51:55;;;;;;;10.68;7.45;;;;;;;7.64;68.10;100871.81;1087258;54;20030;-76
2021/10/10 02:52:56;;;;;;;10.82;7.35;;;;;;;7.64;67.84;100864.69;1087527;54;20030;-75
2021/10/10 02:54:01;;;;;;;10.45;6.50;;;;;;;7.60;68.36;100865.84;1087648;54;20034;-75
2021/10/10 02:55:03;;;;;;;11.50;6.90;;;;;;;7.57;68.42;100863.38;1088699;39;20841;-76
2021/10/10 02:56:10;;;;;;;11.15;6.63;;;;;;;7.48;68.52;100856.03;1087601;54;20050;-75
2021/10/10 02:57:12;;;;;;;13.68;7.80;;;;;;;7.40;68.63;100858.38;1087587;54;20034;-75
2021/10/10 02:58:16;;;;;;;12.73;7.45;;;;;;;7.31;68.82;100867.84;1087615;54;20026;-76
2021/10/10 02:59:17;;;;;;;11.52;7.43;;;;;;;7.26;68.79;100869.94;1087634;54;20034;-77
2021/10/10 03:00:22;;;;;;;15.65;8.63;;;;;;;7.22;69.34;100871.97;1087579;54;20958;-76
2021/10/10 03:01:23;;;;;;;12.35;7.97;;;;;;;7.23;69.17;100870.16;1087370;54;20030;-77
2021/10/10 03:02:27;;;;;;;9.98;6.72;;;;;;;7.23;69.13;100865.69;1087476;54;20038;-78
2021/10/10 03:03:29;;;;;;;10.38;6.55;;;;;;;7.28;68.88;100868.03;1087547;54;20045;-75
2021/10/10 03:04:33;;;;;;;11.30;7.40;;;;;;;7.24;69.13;100862.09;1087566;54;20031;-76
2021/10/10 03:05:34;;;;;;;11.32;6.93;;;;;;;7.31;69.06;100870.50;1090646;39;20744;-77
2021/10/10 03:06:38;;;;;;;10.88;6.47;;;;;;;7.34;68.91;100865.81;1087415;54;20102;-75
2021/10/10 03:07:43;;;;;;;9.18;6.38;;;;;;;7.36;68.80;100860.41;1087523;54;20030;-75
2021/10/10 03:08:44;;;;;;;8.57;6.10;;;;;;;7.40;68.68;100861.91;1087603;54;20042;-75
2021/10/10 03:09:48;;;;;;;12.20;6.55;;;;;;;7.40;68.58;100867.22;1087586;54;20034;-76
2021/10/10 03:10:50;;;;;;;8.73;5.93;;;;;;;7.40;68.47;100869.00;1087482;54;20062;-75
2021/10/10 03:11:57;;;;;;;10.23;6.22;;;;;;;7.43;68.85;100858.19;1087566;54;20123;-76
2021/10/10 03:13:01;;;;;;;10.20;6.30;;;;;;;7.45;68.44;100859.75;1091028;39;20327;-76
2021/10/10 03:14:03;;;;;;;10.32;6.53;;;;;;;7.46;68.57;100857.97;1087597;54;20034;-77
2021/10/10 03:15:08;;;;;;;10.93;6.57;;;;;;;7.47;68.51;100867.63;1087607;54;20040;-75
2021/10/10 03:16:10;;;;;;;9.93;5.68;;;;;;;7.48;68.48;100854.25;1087612;54;20061;-76
2021/10/10 03:17:14;;;;;;;11.80;6.90;;;;;;;7.55;68.27;100867.13;1087713;54;21145;-76
2021/10/10 03:18:16;;;;;;;7.97;5.47;;;;;;;7.57;68.25;100858.06;1087451;54;20030;-77
2021/10/10 03:19:20;;;;;;;9.57;5.20;;;;;;;7.60;68.20;100860.53;1088074;46;20018;-75
2021/10/10 03:20:22;;;;;;;9.10;5.75;;;;;;;7.60;68.20;100859.69;1087619;54;20030;-76
2021/10/10 03:21:26;;;;;;;12.75;6.40;;;;;;;7.59;68.37;100858.81;1087581;54;20050;-76
2021/10/10 03:22:27;;;;;;;11.18;5.63;;;;;;;7.59;68.10;100864.16;1087595;54;20034;-76
2021/10/10 03:23:32;;;;;;;7.93;5.50;;;;;;;7.61;68.32;100858.72;1087553;54;20041;-76
2021/10/10 03:24:34;;;;;;;8.05;5.00;;;;;;;7.58;68.29;100859.78;1087633;54;20031;-75
2021/10/10 03:25:38;;;;;;;9.27;6.00;;;;;;;7.60;68.11;100860.53;1087537;54;20038;-77
2021/10/10 03:26:39;;;;;;;10.65;6.80;;;;;;;7.54;68.31;100852.97;1087545;54;20041;-77
2021/10/10 03:27:46;;;;;;;10.32;5.55;;;;;;;7.56;68.15;100848.38;1087610;54;20038;-77
2021/10/10 03:28:47;;;;;;;9.75;6.05;;;;;;;7.58;68.43;100857.13;1087592;54;20037;-75
2021/10/10 03:29:52;;;;;;;11.20;5.95;;;;;;;7.53;68.44;100856.59;1087351;54;20041;-76
2021/10/10 03:30:53;;;;;;;12.65;7.88;;;;;;;7.43;68.74;100853.69;1087377;54;20045;-76
2021/10/10 03:31:57;;;;;;;13.50;8.77;;;;;;;7.44;68.81;100854.56;1087585;54;20855;-77
2021/10/10 03:32:59;;;;;;;15.40;8.43;;;;;;;7.32;69.10;100857.09;1087475;54;20037;-76
2021/10/10 03:34:03;;;;;;;12.27;8.13;;;;;;;7.25;69.55;100853.16;1087554;54;20034;-76
2021/10/10 03:35:09;;;;;;;14.38;8.82;;;;;;;7.20;69.73;100852.59;1087328;54;20045;-76
2021/10/10 03:36:13;;;;;;;11.75;8.57;;;;;;;7.17;69.61;100852.81;1087525;54;20045;-75
2021/10/10 03:37:15;;;;;;;14.32;8.57;;;;;;;7.12;70.02;100852.25;1087526;54;20034;-75
2021/10/10 03:38:19;;;;;;;15.43;9.13;;;;;;;7.15;69.86;100850.25;1089508;39;20275;-76
2021/10/10 03:39:21;;;;;;;12.30;8.95;;;;;;;7.11;70.02;100853.22;1087481;54;20038;-76
2021/10/10 03:40:25;;;;;;;13.60;9.38;;;;;;;7.09;70.19;100852.44;1087391;54;20034;-75
2021/10/10 03:41:26;;;;;;;18.42;9.75;;;;;;;7.09;69.98;100852.44;1087400;54;20327;-77
2021/10/10 03:42:31;;;;;;;14.13;9.48;;;;;;;7.06;70.04;100844.69;1087483;54;20034;-75
2021/10/10 03:43:37;;;;;;;15.30;10.25;;;;;;;7.03;70.31;100849.25;1087462;54;20346;-76
2021/10/10 03:44:39;;;;;;;12.88;8.52;;;;;;;7.08;70.27;100853.44;1087496;54;20034;-77
2021/10/10 03:45:44;;;;;;;13.38;8.95;;;;;;;7.08;70.06;100853.44;1087450;54;20039;-76
2021/10/10 03:46:45;;;;;;;12.32;8.35;;;;;;;7.08;70.03;100851.63;1087402;54;20041;-75
2021/10/10 03:47:52;;;;;;;11.73;8.02;;;;;;;7.15;69.98;100854.72;1087424;54;20027;-77
2021/10/10 03:48:54;;;;;;;15.82;8.23;;;;;;;7.21;69.89;100851.63;1087629;54;20037;-76
2021/10/10 03:49:58;;;;;;;13.30;8.25;;;;;;;7.21;69.71;100846.31;1087455;54;20069;-76
2021/10/10 03:50:59;;;;;;;11.52;7.63;;;;;;;7.26;69.48;100846.00;1087386;54;20030;-76
2021/10/10 03:52:04;;;;;;;11.77;7.68;;;;;;;7.30;69.42;100843.03;1087521;54;20034;-76
2021/10/10 03:53:05;;;;;;;9.82;6.50;;;;;;;7.39;69.24;100846.03;1087410;54;20030;-75
2021/10/10 03:55:36;;;;;;;12.88;8.60;;;;;;;7.40;69.13;100848.59;1087272;54;20038;-76
2021/10/10 03:56:38;;;;;;;14.60;7.10;;;;;;;7.44;69.35;100849.25;1087486;54;20115;-76
2021/10/10 03:57:42;;;;;;;12.18;7.30;;;;;;;7.49;68.98;100847.09;1087452;54;20041;-76
2021/10/10 03:58:49;;;;;;;13.23;7.57;;;;;;;7.52;68.90;100849.56;1087346;54;20114;-76
2021/10/10 03:59:55;;;;;;;13.63;8.02;;;;;;;7.56;68.94;100848.38;1087415;54;20050;-75
2021/10/10 04:00:59;;;;;;;11.40;7.18;;;;;;;7.56;68.88;100847.53;1087432;54;20026;-76
2021/10/10 04:02:05;;;;;;;11.38;7.82;;;;;;;7.51;68.75;100850.50;1088419;39;20621;-76
2021/10/10 04:03:13;;;;;;;13.35;7.93;;;;;;;7.52;68.77;100841.56;1087479;54;20061;-76
2021/10/10 04:04:15;;;;;;;11.70;8.13;;;;;;;7.50;68.99;100843.50;1087317;54;20884;-76
2021/10/10 04:05:23;;;;;;;16.13;9.32;;;;;;;7.44;68.78;100839.44;1087509;54;20037;-75
2021/10/10 04:06:24;;;;;;;14.80;9.90;;;;;;;7.35;69.02;100840.06;1087576;54;20058;-76
2021/10/10 04:07:29;;;;;;;15.60;9.57;;;;;;;7.29;69.41;100844.00;1087383;54;20046;-76
2021/10/10 04:08:33;;;;;;;15.00;8.65;;;;;;;7.33;69.50;100850.81;1087497;54;20030;-77
2021/10/10 04:09:34;;;;;;;16.05;10.10;;;;;;;7.28;69.47;100852.94;1087260;54;20041;-76
2021/10/10 04:10:39;;;;;;;14.38;9.55;;;;;;;7.29;69.49;100849.31;1087309;54;20037;-76
2021/10/10 04:11:40;;;;;;;13.57;9.25;;;;;;;7.26;69.36;100854.00;1087485;54;20026;-76
2021/10/10 04:12:55;;;;;;;12.85;8.55;;;;;;;7.22;69.54;100850.69;1087475;54;20041;-75
2021/10/10 04:14:15;;;;;;;12.77;7.70;;;;;;;7.26;69.55;100846.88;1087498;54;20030;-76
2021/10/10 04:15:27;;;;;;;14.68;8.35;;;;;;;7.26;69.72;100854.00;1087129;54;20044;-76
2021/10/10 04:16:38;;;;;;;14.35;8.85;;;;;;;7.24;69.71;100848.78;1087411;54;20026;-75
2021/10/10 04:17:40;;;;;;;13.25;8.90;;;;;;;7.23;69.78;100846.22;1087447;54;20054;-76
2021/10/10 04:18:44;;;;;;;13.07;8.07;;;;;;;7.23;69.61;100847.06;1087455;54;20034;-76
2021/10/10 04:19:46;;;;;;;13.18;7.95;;;;;;;7.26;69.58;100849.53;1088097;39;21973;-76
2021/10/10 04:20:50;;;;;;;12.20;8.38;;;;;;;7.30;69.42;100839.53;1087043;54;20045;-76
2021/10/10 04:21:51;;;;;;;12.93;9.02;;;;;;;7.27;69.54;100853.91;1087439;54;20030;-76
2021/10/10 04:22:55;;;;;;;13.95;10.00;;;;;;;7.17;69.75;100847.50;1087415;54;20034;-75
2021/10/10 04:23:59;;;;;;;13.60;9.05;;;;;;;7.14;70.00;100845.88;1087438;54;20023;-76
2021/10/10 04:25:01;;;;;;;16.55;9.10;;;;;;;7.13;70.09;100852.16;1087428;54;20034;-76
2021/10/10 04:26:05;;;;;;;13.73;9.45;;;;;;;7.13;70.09;100851.31;1087450;54;20034;-76
2021/10/10 04:27:07;;;;;;;12.55;7.68;;;;;;;7.17;69.71;100847.50;1086979;47;20035;-76
2021/10/10 04:28:11;;;;;;;11.07;7.88;;;;;;;7.17;69.71;100847.50;1087492;54;20050;-76
2021/10/10 04:29:15;;;;;;;13.77;8.88;;;;;;;7.12;70.25;100849.59;1087436;54;20054;-75
2021/10/10 04:30:19;;;;;;;16.00;9.52;;;;;;;7.07;70.08;100849.91;1087370;54;20099;-76
2021/10/10 04:31:21;;;;;;;13.90;8.43;;;;;;;7.11;70.05;100855.88;1087348;54;20769;-76
2021/10/10 04:32:25;;;;;;;14.93;9.00;;;;;;;7.13;70.12;100856.63;1087213;54;20058;-75
2021/10/10 04:33:29;;;;;;;12.23;8.63;;;;;;;7.15;69.93;100852.91;1087368;54;20037;-75
2021/10/10 04:34:31;;;;;;;11.63;8.10;;;;;;;7.21;69.73;100853.47;1087431;54;20037;-75
2021/10/10 04:35:35;;;;;;;14.68;8.65;;;;;;;7.17;69.72;100855.47;1087380;54;20057;-76
2021/10/10 04:36:36;;;;;;;11.40;7.60;;;;;;;7.19;69.70;100864.19;1087376;54;20058;-76
2021/10/10 04:37:44;;;;;;;15.68;10.13;;;;;;;7.11;69.91;100859.41;1087341;54;20038;-75
2021/10/10 04:38:45;;;;;;;13.85;10.13;;;;;;;7.01;70.28;100850.31;1087334;54;20054;-77
2021/10/10 04:39:49;;;;;;;13.75;10.20;;;;;;;7.00;70.34;100859.25;1087437;54;20035;-75
2021/10/10 04:40:51;;;;;;;15.70;10.18;;;;;;;6.98;70.50;100848.72;1087344;54;20034;-76
2021/10/10 04:41:55;;;;;;;16.15;10.40;;;;;;;6.92;70.62;100854.44;1087380;54;20054;-77
2021/10/10 04:42:56;;;;;;;14.07;10.27;;;;;;;6.85;70.78;100855.78;1087391;54;20030;-75
2021/10/10 04:44:01;;;;;;;18.83;11.30;;;;;;;6.79;71.02;100845.59;1087383;47;20138;-76
2021/10/10 04:45:06;;;;;;;17.13;11.82;;;;;;;6.82;70.67;100848.03;1087439;54;20034;-78
2021/10/10 04:46:10;;;;;;;13.38;9.55;;;;;;;6.80;70.80;100849.94;1087438;54;20039;-76
2021/10/10 04:47:12;;;;;;;15.48;10.07;;;;;;;6.83;70.75;100841.75;1087459;54;20038;-76
2021/10/10 04:48:16;;;;;;;14.80;8.95;;;;;;;6.86;70.52;100850.38;1087342;54;20030;-76
2021/10/10 04:49:18;;;;;;;14.02;9.32;;;;;;;6.89;70.50;100838.72;1089002;39;20591;-76
2021/10/10 04:50:22;;;;;;;14.55;9.73;;;;;;;6.89;70.62;100843.16;1087330;54;20081;-76
2021/10/10 04:51:23;;;;;;;13.98;8.55;;;;;;;6.86;70.52;100844.22;1086947;54;20050;-76
2021/10/10 04:52:28;;;;;;;19.48;10.02;;;;;;;6.86;70.61;100844.22;1087321;54;20061;-76
2021/10/10 04:53:30;;;;;;;13.48;9.93;;;;;;;6.85;70.77;100845.16;1087471;54;20061;-75
2021/10/10 04:54:35;;;;;;;16.70;9.85;;;;;;;6.82;70.59;100843.56;1087495;54;20030;-76
2021/10/10 04:55:37;;;;;;;13.98;9.75;;;;;;;6.81;70.81;100849.84;1087304;54;20034;-75
2021/10/10 04:56:42;;;;;;;14.27;9.88;;;;;;;6.84;70.88;100846.13;1087437;54;20082;-76
2021/10/10 04:57:43;;;;;;;13.48;8.63;;;;;;;6.86;70.74;100846.88;1087654;54;20090;-76